sensor_id;sensor_type;location;lat;lon;timestamp;pressure;altitude;pressure_sealevel;temperature;humidity
75972;BME280;64651;47.540;19.088;2024-02-21T00:02:09;101238.66;;;8.31;77.66
75972;BME280;64651;47.540;19.088;2024-02-21T00:07:12;101243.53;;;8.40;77.26
75972;BME280;64651;47.540;19.088;2024-02-21T00:12:14;101237.41;;;8.50;76.25
75972;BME280;64651;47.540;19.088;2024-02-21T00:17:16;101230.75;;;8.46;75.75
75972;BME280;64651;47.540;19.088;2024-02-21T00:22:18;101221.56;;;8.52;75.40
75972;BME280;64651;47.540;19.088;2024-02-21T00:27:21;101224.53;;;8.50;75.61
75972;BME280;64651;47.540;19.088;2024-02-21T00:32:23;101215.12;;;8.46;75.89
75972;BME280;64651;47.540;19.088;2024-02-21T00:37:25;101215.28;;;8.40;76.16
75972;BME280;64651;47.540;19.088;2024-02-21T00:42:27;101207.81;;;8.35;75.79
75972;BME280;64651;47.540;19.088;2024-02-21T00:47:29;101203.37;;;8.34;75.84
75972;BME280;64651;47.540;19.088;2024-02-21T00:52:32;101207.44;;;8.32;75.74
75972;BME280;64651;47.540;19.088;2024-02-21T00:57:34;101205.78;;;8.31;75.22
75972;BME280;64651;47.540;19.088;2024-02-21T01:02:36;101207.91;;;8.29;75.29
75972;BME280;64651;47.540;19.088;2024-02-21T01:07:38;101217.81;;;8.18;74.35
75972;BME280;64651;47.540;19.088;2024-02-21T01:12:41;101202.22;;;8.19;73.88
75972;BME280;64651;47.540;19.088;2024-02-21T01:17:43;101198.06;;;8.16;73.47
75972;BME280;64651;47.540;19.088;2024-02-21T01:22:46;101200.72;;;8.11;73.64
75972;BME280;64651;47.540;19.088;2024-02-21T01:27:48;101202.75;;;8.04;73.65
75972;BME280;64651;47.540;19.088;2024-02-21T01:32:50;101197.66;;;7.96;73.77
75972;BME280;64651;47.540;19.088;2024-02-21T01:37:52;101197.88;;;7.94;73.86
75972;BME280;64651;47.540;19.088;2024-02-21T01:42:55;101201.97;;;7.92;74.13
75972;BME280;64651;47.540;19.088;2024-02-21T01:47:58;101188.00;;;7.93;74.19
75972;BME280;64651;47.540;19.088;2024-02-21T01:53:00;101186.00;;;7.89;74.53
75972;BME280;64651;47.540;19.088;2024-02-21T01:58:03;101181.72;;;7.93;74.56
75972;BME280;64651;47.540;19.088;2024-02-21T02:03:05;101187.31;;;7.86;75.04
75972;BME280;64651;47.540;19.088;2024-02-21T02:08:08;101181.16;;;7.79;75.50
75972;BME280;64651;47.540;19.088;2024-02-21T02:13:11;101183.38;;;7.82;75.47
75972;BME280;64651;47.540;19.088;2024-02-21T02:18:15;101186.84;;;7.78;75.62
75972;BME280;64651;47.540;19.088;2024-02-21T02:28:29;101185.34;;;7.58;76.35
75972;BME280;64651;47.540;19.088;2024-02-21T02:33:31;101178.81;;;7.48;77.23
75972;BME280;64651;47.540;19.088;2024-02-21T02:38:33;101178.84;;;7.36;77.40
75972;BME280;64651;47.540;19.088;2024-02-21T02:43:36;101176.31;;;7.34;77.79
75972;BME280;64651;47.540;19.088;2024-02-21T02:48:38;101175.72;;;7.32;77.82
75972;BME280;64651;47.540;19.088;2024-02-21T02:53:41;101171.81;;;7.28;77.91
75972;BME280;64651;47.540;19.088;2024-02-21T02:58:43;101175.16;;;7.30;77.79
75972;BME280;64651;47.540;19.088;2024-02-21T03:03:46;101160.88;;;7.28;77.66
75972;BME280;64651;47.540;19.088;2024-02-21T03:08:49;101171.47;;;7.25;78.00
75972;BME280;64651;47.540;19.088;2024-02-21T03:13:52;101178.00;;;7.24;78.10
75972;BME280;64651;47.540;19.088;2024-02-21T03:18:54;101176.69;;;7.26;78.11
75972;BME280;64651;47.540;19.088;2024-02-21T03:23:56;101170.25;;;7.32;77.49
75972;BME280;64651;47.540;19.088;2024-02-21T03:28:59;101176.44;;;7.28;77.06
75972;BME280;64651;47.540;19.088;2024-02-21T03:34:01;101190.75;;;7.30;77.07
75972;BME280;64651;47.540;19.088;2024-02-21T03:39:03;101191.19;;;7.27;77.47
75972;BME280;64651;47.540;19.088;2024-02-21T03:44:05;101189.53;;;7.14;78.34
75972;BME280;64651;47.540;19.088;2024-02-21T03:49:07;101189.16;;;6.87;79.23
75972;BME280;64651;47.540;19.088;2024-02-21T03:54:10;101179.16;;;6.70;80.07
75972;BME280;64651;47.540;19.088;2024-02-21T03:59:12;101180.41;;;6.44;81.23
75972;BME280;64651;47.540;19.088;2024-02-21T04:04:14;101191.50;;;6.31;81.81
75972;BME280;64651;47.540;19.088;2024-02-21T04:09:16;101193.59;;;6.17;82.66
75972;BME280;64651;47.540;19.088;2024-02-21T04:14:19;101180.22;;;5.97;83.67
75972;BME280;64651;47.540;19.088;2024-02-21T04:19:21;101178.84;;;5.88;84.31
75972;BME280;64651;47.540;19.088;2024-02-21T04:24:23;101182.25;;;5.84;84.52
75972;BME280;64651;47.540;19.088;2024-02-21T04:29:25;101183.94;;;5.85;84.58
75972;BME280;64651;47.540;19.088;2024-02-21T04:34:29;101184.47;;;5.93;84.37
75972;BME280;64651;47.540;19.088;2024-02-21T04:39:32;101183.25;;;5.89;84.71
75972;BME280;64651;47.540;19.088;2024-02-21T04:44:34;101174.75;;;5.79;84.90
75972;BME280;64651;47.540;19.088;2024-02-21T04:49:38;101173.38;;;5.70;84.77
75972;BME280;64651;47.540;19.088;2024-02-21T04:54:41;101178.56;;;5.96;84.35
75972;BME280;64651;47.540;19.088;2024-02-21T04:59:49;101183.22;;;6.07;84.03
75972;BME280;64651;47.540;19.088;2024-02-21T05:04:51;101184.75;;;6.03;84.21
75972;BME280;64651;47.540;19.088;2024-02-21T05:09:53;101195.06;;;6.01;84.20
75972;BME280;64651;47.540;19.088;2024-02-21T05:14:55;101179.37;;;5.97;84.48
75972;BME280;64651;47.540;19.088;2024-02-21T05:19:58;101190.91;;;5.99;84.43
75972;BME280;64651;47.540;19.088;2024-02-21T05:25:00;101191.28;;;6.02;84.57
75972;BME280;64651;47.540;19.088;2024-02-21T05:30:04;101194.41;;;5.88;85.32
75972;BME280;64651;47.540;19.088;2024-02-21T05:35:07;101181.94;;;5.92;85.41
75972;BME280;64651;47.540;19.088;2024-02-21T05:40:10;101177.50;;;5.97;85.16
75972;BME280;64651;47.540;19.088;2024-02-21T05:45:15;101178.69;;;5.83;85.68
75972;BME280;64651;47.540;19.088;2024-02-21T05:50:17;101191.28;;;5.84;85.61
75972;BME280;64651;47.540;19.088;2024-02-21T05:55:20;101195.00;;;5.71;86.40
75972;BME280;64651;47.540;19.088;2024-02-21T06:00:22;101195.97;;;5.77;85.93
75972;BME280;64651;47.540;19.088;2024-02-21T06:05:24;101196.59;;;5.79;85.79
75972;BME280;64651;47.540;19.088;2024-02-21T06:10:26;101201.03;;;5.73;85.64
75972;BME280;64651;47.540;19.088;2024-02-21T06:15:29;101205.31;;;5.69;85.82
75972;BME280;64651;47.540;19.088;2024-02-21T06:20:31;101202.87;;;5.61;85.96
75972;BME280;64651;47.540;19.088;2024-02-21T06:25:33;101205.91;;;5.53;86.04
75972;BME280;64651;47.540;19.088;2024-02-21T06:30:35;101206.06;;;5.58;86.42
75972;BME280;64651;47.540;19.088;2024-02-21T06:35:38;101215.09;;;5.77;85.71
75972;BME280;64651;47.540;19.088;2024-02-21T06:40:43;101229.06;;;5.87;85.36
75972;BME280;64651;47.540;19.088;2024-02-21T06:45:51;101222.09;;;5.91;84.80
75972;BME280;64651;47.540;19.088;2024-02-21T06:50:53;101219.53;;;5.96;84.31
75972;BME280;64651;47.540;19.088;2024-02-21T06:55:55;101220.50;;;6.02;83.78
75972;BME280;64651;47.540;19.088;2024-02-21T07:01:09;101229.44;;;6.09;83.32
75972;BME280;64651;47.540;19.088;2024-02-21T07:06:11;101233.56;;;6.30;82.48
75972;BME280;64651;47.540;19.088;2024-02-21T07:11:14;101237.56;;;6.45;81.55
75972;BME280;64651;47.540;19.088;2024-02-21T07:16:17;101238.75;;;6.79;79.87
75972;BME280;64651;47.540;19.088;2024-02-21T07:21:19;101244.34;;;6.84;79.60
75972;BME280;64651;47.540;19.088;2024-02-21T07:26:21;101247.37;;;7.06;78.16
75972;BME280;64651;47.540;19.088;2024-02-21T07:31:24;101256.87;;;7.15;77.91
75972;BME280;64651;47.540;19.088;2024-02-21T07:36:29;101261.06;;;7.29;77.43
75972;BME280;64651;47.540;19.088;2024-02-21T07:41:34;101254.28;;;7.32;77.00
75972;BME280;64651;47.540;19.088;2024-02-21T07:46:36;101256.91;;;7.39;77.12
75972;BME280;64651;47.540;19.088;2024-02-21T07:51:39;101262.03;;;7.47;76.62
75972;BME280;64651;47.540;19.088;2024-02-21T07:56:41;101267.25;;;7.71;75.91
75972;BME280;64651;47.540;19.088;2024-02-21T08:01:43;101273.94;;;8.27;74.41
75972;BME280;64651;47.540;19.088;2024-02-21T08:06:51;101275.97;;;8.32;73.33
75972;BME280;64651;47.540;19.088;2024-02-21T08:11:55;101272.81;;;8.80;71.42
75972;BME280;64651;47.540;19.088;2024-02-21T08:16:58;101263.72;;;8.63;71.45
75972;BME280;64651;47.540;19.088;2024-02-21T08:22:01;101263.72;;;8.63;71.18
75972;BME280;64651;47.540;19.088;2024-02-21T08:27:05;101252.72;;;8.63;70.93
75972;BME280;64651;47.540;19.088;2024-02-21T08:32:08;101258.31;;;8.68;70.91
75972;BME280;64651;47.540;19.088;2024-02-21T08:37:10;101256.78;;;8.88;70.01
75972;BME280;64651;47.540;19.088;2024-02-21T08:42:13;101253.87;;;9.12;69.52
75972;BME280;64651;47.540;19.088;2024-02-21T08:47:15;101251.03;;;9.40;68.04
75972;BME280;64651;47.540;19.088;2024-02-21T08:52:17;101248.19;;;9.68;66.98
75972;BME280;64651;47.540;19.088;2024-02-21T08:57:19;101239.72;;;9.92;65.55
75972;BME280;64651;47.540;19.088;2024-02-21T09:02:22;101241.69;;;9.96;64.07
75972;BME280;64651;47.540;19.088;2024-02-21T09:07:25;101242.34;;;10.03;63.91
75972;BME280;64651;47.540;19.088;2024-02-21T09:12:27;101241.03;;;10.28;62.20
75972;BME280;64651;47.540;19.088;2024-02-21T09:17:29;101228.53;;;11.27;58.87
75972;BME280;64651;47.540;19.088;2024-02-21T09:22:32;101236.97;;;11.95;56.78
75972;BME280;64651;47.540;19.088;2024-02-21T09:27:37;101230.28;;;11.81;55.31
75972;BME280;64651;47.540;19.088;2024-02-21T09:32:39;101228.88;;;12.50;53.98
75972;BME280;64651;47.540;19.088;2024-02-21T09:37:42;101226.72;;;13.84;51.94
75972;BME280;64651;47.540;19.088;2024-02-21T09:42:47;101226.50;;;13.55;50.14
75972;BME280;64651;47.540;19.088;2024-02-21T09:53:27;101222.69;;;16.43;43.11
75972;BME280;64651;47.540;19.088;2024-02-21T09:58:30;101213.06;;;18.57;38.39
75972;BME280;64651;47.540;19.088;2024-02-21T10:03:33;101211.91;;;19.16;37.56
75972;BME280;64651;47.540;19.088;2024-02-21T10:08:36;101214.19;;;20.38;33.84
75972;BME280;64651;47.540;19.088;2024-02-21T10:13:38;101198.09;;;22.81;29.99
75972;BME280;64651;47.540;19.088;2024-02-21T10:18:40;101184.19;;;26.31;24.89
75972;BME280;64651;47.540;19.088;2024-02-21T10:23:48;101181.00;;;27.86;22.98
75972;BME280;64651;47.540;19.088;2024-02-21T10:28:50;101172.19;;;28.67;22.55
75972;BME280;64651;47.540;19.088;2024-02-21T10:33:59;101172.75;;;26.23;23.72
75972;BME280;64651;47.540;19.088;2024-02-21T10:39:02;101183.13;;;18.85;34.46
75972;BME280;64651;47.540;19.088;2024-02-21T10:44:05;101169.78;;;17.82;37.29
75972;BME280;64651;47.540;19.088;2024-02-21T10:49:10;101169.13;;;16.61;39.94
75972;BME280;64651;47.540;19.088;2024-02-21T10:54:24;101154.00;;;15.87;42.10
75972;BME280;64651;47.540;19.088;2024-02-21T10:59:32;101136.41;;;18.68;37.82
75972;BME280;64651;47.540;19.088;2024-02-21T11:04:35;101121.50;;;23.47;29.21
75972;BME280;64651;47.540;19.088;2024-02-21T11:09:38;101132.97;;;20.69;32.20
75972;BME280;64651;47.540;19.088;2024-02-21T11:14:41;101113.81;;;27.15;25.16
75972;BME280;64651;47.540;19.088;2024-02-21T11:19:44;101096.22;;;29.46;21.47
75972;BME280;64651;47.540;19.088;2024-02-21T11:24:47;101077.56;;;30.58;20.01
75972;BME280;64651;47.540;19.088;2024-02-21T11:29:58;101084.75;;;23.76;26.40
75972;BME280;64651;47.540;19.088;2024-02-21T11:35:02;101080.31;;;19.14;33.69
75972;BME280;64651;47.540;19.088;2024-02-21T11:40:07;101066.28;;;26.78;23.52
75972;BME280;64651;47.540;19.088;2024-02-21T11:45:15;101064.69;;;23.17;27.51
75972;BME280;64651;47.540;19.088;2024-02-21T11:50:17;101064.50;;;25.50;24.42
75972;BME280;64651;47.540;19.088;2024-02-21T11:55:23;101058.91;;;26.00;24.64
75972;BME280;64651;47.540;19.088;2024-02-21T12:00:26;101062.25;;;20.16;30.67
75972;BME280;64651;47.540;19.088;2024-02-21T12:05:28;101063.25;;;16.25;38.29
75972;BME280;64651;47.540;19.088;2024-02-21T12:10:31;101067.63;;;14.98;41.22
75972;BME280;64651;47.540;19.088;2024-02-21T12:15:34;101053.25;;;14.29;43.02
75972;BME280;64651;47.540;19.088;2024-02-21T12:20:36;101049.31;;;14.35;42.76
75972;BME280;64651;47.540;19.088;2024-02-21T12:25:38;101051.59;;;14.28;42.81
75972;BME280;64651;47.540;19.088;2024-02-21T12:30:41;101044.75;;;13.76;44.29
75972;BME280;64651;47.540;19.088;2024-02-21T12:35:45;101043.69;;;13.62;44.19
75972;BME280;64651;47.540;19.088;2024-02-21T12:40:47;101037.94;;;13.53;44.73
75972;BME280;64651;47.540;19.088;2024-02-21T12:45:49;101035.94;;;13.69;44.63
75972;BME280;64651;47.540;19.088;2024-02-21T12:50:52;101029.38;;;13.50;44.56
75972;BME280;64651;47.540;19.088;2024-02-21T12:55:54;101025.16;;;13.67;44.78
75972;BME280;64651;47.540;19.088;2024-02-21T13:00:56;101012.19;;;13.63;44.33
75972;BME280;64651;47.540;19.088;2024-02-21T13:05:58;101013.91;;;13.49;44.61
75972;BME280;64651;47.540;19.088;2024-02-21T13:11:01;101002.31;;;13.47;44.79
75972;BME280;64651;47.540;19.088;2024-02-21T13:16:04;101005.69;;;13.33;44.80
75972;BME280;64651;47.540;19.088;2024-02-21T13:21:06;100994.06;;;13.42;44.79
75972;BME280;64651;47.540;19.088;2024-02-21T13:26:08;100986.84;;;13.46;44.54
75972;BME280;64651;47.540;19.088;2024-02-21T13:31:12;100984.88;;;13.95;43.48
75972;BME280;64651;47.540;19.088;2024-02-21T13:36:14;100974.12;;;13.89;43.44
75972;BME280;64651;47.540;19.088;2024-02-21T13:41:17;100969.88;;;14.35;42.73
75972;BME280;64651;47.540;19.088;2024-02-21T13:46:19;100955.78;;;15.56;40.54
75972;BME280;64651;47.540;19.088;2024-02-21T13:51:22;100945.72;;;20.81;31.31
75972;BME280;64651;47.540;19.088;2024-02-21T13:56:24;100945.37;;;20.10;29.86
75972;BME280;64651;47.540;19.088;2024-02-21T14:01:26;100940.62;;;19.84;30.42
75972;BME280;64651;47.540;19.088;2024-02-21T14:06:30;100927.28;;;20.07;30.14
75972;BME280;64651;47.540;19.088;2024-02-21T14:11:33;100944.72;;;16.53;35.22
75972;BME280;64651;47.540;19.088;2024-02-21T14:16:35;100938.66;;;15.86;36.55
75972;BME280;64651;47.540;19.088;2024-02-21T14:21:38;100936.00;;;15.20;37.93
75972;BME280;64651;47.540;19.088;2024-02-21T14:26:40;100939.53;;;14.25;39.91
75972;BME280;64651;47.540;19.088;2024-02-21T14:31:43;100935.13;;;15.00;38.52
75972;BME280;64651;47.540;19.088;2024-02-21T14:36:45;100931.34;;;16.87;34.91
75972;BME280;64651;47.540;19.088;2024-02-21T14:41:47;100933.72;;;15.03;37.80
75972;BME280;64651;47.540;19.088;2024-02-21T14:46:49;100933.50;;;14.18;39.59
75972;BME280;64651;47.540;19.088;2024-02-21T14:51:52;100925.09;;;13.60;41.10
75972;BME280;64651;47.540;19.088;2024-02-21T14:56:54;100921.47;;;14.33;40.26
75972;BME280;64651;47.540;19.088;2024-02-21T15:01:56;100918.44;;;14.29;40.12
75972;BME280;64651;47.540;19.088;2024-02-21T15:06:58;100905.25;;;13.87;40.79
75972;BME280;64651;47.540;19.088;2024-02-21T15:12:02;100912.88;;;13.71;41.14
75972;BME280;64651;47.540;19.088;2024-02-21T15:17:04;100909.88;;;13.63;41.24
75972;BME280;64651;47.540;19.088;2024-02-21T15:22:06;100900.59;;;13.44;41.37
75972;BME280;64651;47.540;19.088;2024-02-21T15:27:08;100899.53;;;13.39;41.48
75972;BME280;64651;47.540;19.088;2024-02-21T15:32:11;100909.81;;;13.24;41.98
75972;BME280;64651;47.540;19.088;2024-02-21T15:37:14;100901.34;;;13.00;42.18
75972;BME280;64651;47.540;19.088;2024-02-21T15:42:19;100893.19;;;12.80;42.75
75972;BME280;64651;47.540;19.088;2024-02-21T15:47:22;100899.56;;;12.65;43.51
75972;BME280;64651;47.540;19.088;2024-02-21T15:52:25;100905.13;;;12.45;43.76
75972;BME280;64651;47.540;19.088;2024-02-21T15:57:28;100895.22;;;12.39;44.68
75972;BME280;64651;47.540;19.088;2024-02-21T16:02:30;100887.81;;;12.19;45.24
75972;BME280;64651;47.540;19.088;2024-02-21T16:07:33;100887.28;;;12.02;44.92
75972;BME280;64651;47.540;19.088;2024-02-21T16:12:36;100880.09;;;11.96;45.05
75972;BME280;64651;47.540;19.088;2024-02-21T16:17:40;100882.31;;;11.78;45.42
75972;BME280;64651;47.540;19.088;2024-02-21T16:22:43;100886.69;;;11.59;45.87
75972;BME280;64651;47.540;19.088;2024-02-21T16:27:47;100887.25;;;11.46;46.03
75972;BME280;64651;47.540;19.088;2024-02-21T16:32:50;100893.28;;;11.43;46.47
75972;BME280;64651;47.540;19.088;2024-02-21T16:37:55;100890.84;;;11.52;46.17
75972;BME280;64651;47.540;19.088;2024-02-21T16:43:00;100882.28;;;11.48;46.26
75972;BME280;64651;47.540;19.088;2024-02-21T16:48:05;100882.84;;;11.40;46.82
75972;BME280;64651;47.540;19.088;2024-02-21T16:53:07;100884.72;;;11.34;47.25
75972;BME280;64651;47.540;19.088;2024-02-21T16:58:12;100893.84;;;11.40;47.16
75972;BME280;64651;47.540;19.088;2024-02-21T17:03:21;100900.19;;;11.46;46.96
75972;BME280;64651;47.540;19.088;2024-02-21T17:08:32;100901.56;;;11.48;47.21
75972;BME280;64651;47.540;19.088;2024-02-21T17:13:35;100898.81;;;11.53;47.49
75972;BME280;64651;47.540;19.088;2024-02-21T17:18:52;100896.62;;;11.55;47.42
75972;BME280;64651;47.540;19.088;2024-02-21T17:23:55;100888.63;;;11.54;47.51
75972;BME280;64651;47.540;19.088;2024-02-21T17:28:57;100883.66;;;11.46;47.59
75972;BME280;64651;47.540;19.088;2024-02-21T17:34:01;100879.25;;;11.45;46.89
75972;BME280;64651;47.540;19.088;2024-02-21T17:39:04;100872.09;;;11.44;47.00
75972;BME280;64651;47.540;19.088;2024-02-21T17:44:06;100871.78;;;11.35;46.79
75972;BME280;64651;47.540;19.088;2024-02-21T17:49:10;100868.22;;;11.39;46.63
75972;BME280;64651;47.540;19.088;2024-02-21T17:54:12;100864.66;;;11.39;46.76
75972;BME280;64651;47.540;19.088;2024-02-21T17:59:16;100862.97;;;11.38;48.07
75972;BME280;64651;47.540;19.088;2024-02-21T18:04:21;100857.47;;;11.33;48.02
75972;BME280;64651;47.540;19.088;2024-02-21T18:09:23;100862.16;;;11.32;46.42
75972;BME280;64651;47.540;19.088;2024-02-21T18:14:25;100856.91;;;11.31;45.94
75972;BME280;64651;47.540;19.088;2024-02-21T18:19:27;100850.84;;;11.24;45.91
75972;BME280;64651;47.540;19.088;2024-02-21T18:24:30;100844.50;;;11.23;46.06
75972;BME280;64651;47.540;19.088;2024-02-21T18:29:32;100841.72;;;11.13;46.34
75972;BME280;64651;47.540;19.088;2024-02-21T18:34:41;100835.09;;;11.04;47.45
75972;BME280;64651;47.540;19.088;2024-02-21T18:39:43;100839.50;;;11.00;48.44
75972;BME280;64651;47.540;19.088;2024-02-21T18:44:45;100836.22;;;11.08;48.45
75972;BME280;64651;47.540;19.088;2024-02-21T18:49:49;100840.31;;;11.01;48.14
75972;BME280;64651;47.540;19.088;2024-02-21T18:54:52;100833.72;;;11.07;48.40
75972;BME280;64651;47.540;19.088;2024-02-21T18:59:54;100828.47;;;10.95;48.59
75972;BME280;64651;47.540;19.088;2024-02-21T19:04:56;100828.47;;;10.90;48.83
75972;BME280;64651;47.540;19.088;2024-02-21T19:09:59;100827.31;;;10.76;49.19
75972;BME280;64651;47.540;19.088;2024-02-21T19:15:02;100813.53;;;10.71;48.72
75972;BME280;64651;47.540;19.088;2024-02-21T19:20:05;100810.50;;;10.67;48.70
75972;BME280;64651;47.540;19.088;2024-02-21T19:25:08;100813.22;;;10.62;49.12
75972;BME280;64651;47.540;19.088;2024-02-21T19:30:15;100804.97;;;10.62;49.36
75972;BME280;64651;47.540;19.088;2024-02-21T19:35:18;100794.50;;;10.59;49.58
75972;BME280;64651;47.540;19.088;2024-02-21T19:40:21;100798.63;;;10.62;49.67
75972;BME280;64651;47.540;19.088;2024-02-21T19:45:26;100799.44;;;10.57;50.45
75972;BME280;64651;47.540;19.088;2024-02-21T19:50:28;100795.28;;;10.44;51.34
75972;BME280;64651;47.540;19.088;2024-02-21T19:55:35;100794.38;;;10.24;52.07
75972;BME280;64651;47.540;19.088;2024-02-21T20:00:37;100784.97;;;10.20;52.47
75972;BME280;64651;47.540;19.088;2024-02-21T20:05:40;100786.25;;;10.07;52.91
75972;BME280;64651;47.540;19.088;2024-02-21T20:10:45;100784.88;;;10.04;53.09
75972;BME280;64651;47.540;19.088;2024-02-21T20:15:48;100774.19;;;10.13;52.83
75972;BME280;64651;47.540;19.088;2024-02-21T20:20:50;100772.81;;;10.10;52.85
75972;BME280;64651;47.540;19.088;2024-02-21T20:25:53;100768.44;;;10.14;52.96
75972;BME280;64651;47.540;19.088;2024-02-21T20:30:57;100765.66;;;10.04;53.40
75972;BME280;64651;47.540;19.088;2024-02-21T20:35:59;100766.75;;;10.03;53.50
75972;BME280;64651;47.540;19.088;2024-02-21T20:41:01;100754.53;;;9.84;54.21
75972;BME280;64651;47.540;19.088;2024-02-21T20:46:04;100759.44;;;9.77;54.42
75972;BME280;64651;47.540;19.088;2024-02-21T20:51:07;100754.97;;;9.66;55.07
75972;BME280;64651;47.540;19.088;2024-02-21T20:56:09;100756.78;;;9.50;55.61
75972;BME280;64651;47.540;19.088;2024-02-21T21:01:13;100753.09;;;9.34;56.32
75972;BME280;64651;47.540;19.088;2024-02-21T21:06:15;100759.97;;;9.37;56.21
75972;BME280;64651;47.540;19.088;2024-02-21T21:11:17;100769.66;;;9.45;56.10
75972;BME280;64651;47.540;19.088;2024-02-21T21:16:23;100751.50;;;9.39;56.64
75972;BME280;64651;47.540;19.088;2024-02-21T21:21:26;100753.44;;;9.43;56.71
75972;BME280;64651;47.540;19.088;2024-02-21T21:26:28;100756.47;;;9.47;56.83
75972;BME280;64651;47.540;19.088;2024-02-21T21:31:30;100741.69;;;9.53;56.78
75972;BME280;64651;47.540;19.088;2024-02-21T21:36:32;100733.13;;;9.44;57.02
75972;BME280;64651;47.540;19.088;2024-02-21T21:41:35;100722.16;;;9.44;57.30
75972;BME280;64651;47.540;19.088;2024-02-21T21:46:37;100724.28;;;9.37;57.61
75972;BME280;64651;47.540;19.088;2024-02-21T21:51:41;100725.34;;;9.31;57.49
75972;BME280;64651;47.540;19.088;2024-02-21T21:56:43;100715.91;;;9.22;57.97
75972;BME280;64651;47.540;19.088;2024-02-21T22:01:45;100716.44;;;9.14;58.40
75972;BME280;64651;47.540;19.088;2024-02-21T22:06:48;100715.59;;;9.13;58.14
75972;BME280;64651;47.540;19.088;2024-02-21T22:11:50;100723.09;;;9.28;57.50
75972;BME280;64651;47.540;19.088;2024-02-21T22:16:53;100714.03;;;9.27;57.20
75972;BME280;64651;47.540;19.088;2024-02-21T22:21:55;100710.66;;;9.15;57.64
75972;BME280;64651;47.540;19.088;2024-02-21T22:26:57;100721.72;;;8.93;58.80
75972;BME280;64651;47.540;19.088;2024-02-21T22:32:01;100717.22;;;8.77;59.68
75972;BME280;64651;47.540;19.088;2024-02-21T22:37:04;100705.28;;;8.67;60.32
75972;BME280;64651;47.540;19.088;2024-02-21T22:42:06;100706.03;;;8.57;60.57
75972;BME280;64651;47.540;19.088;2024-02-21T22:47:10;100695.56;;;8.54;60.66
75972;BME280;64651;47.540;19.088;2024-02-21T22:52:12;100688.94;;;8.50;60.97
75972;BME280;64651;47.540;19.088;2024-02-21T22:57:15;100682.19;;;8.36;61.51
75972;BME280;64651;47.540;19.088;2024-02-21T23:02:17;100672.97;;;8.20;61.88
75972;BME280;64651;47.540;19.088;2024-02-21T23:07:19;100666.94;;;7.96;62.42
75972;BME280;64651;47.540;19.088;2024-02-21T23:12:21;100663.25;;;7.86;62.84
75972;BME280;64651;47.540;19.088;2024-02-21T23:17:24;100652.03;;;7.65;63.36
75972;BME280;64651;47.540;19.088;2024-02-21T23:22:26;100651.72;;;7.62;63.64
75972;BME280;64651;47.540;19.088;2024-02-21T23:27:29;100654.84;;;7.49;64.26
75972;BME280;64651;47.540;19.088;2024-02-21T23:32:31;100652.22;;;7.37;64.74
75972;BME280;64651;47.540;19.088;2024-02-21T23:37:34;100633.97;;;7.26;65.19
75972;BME280;64651;47.540;19.088;2024-02-21T23:42:37;100626.59;;;7.26;65.15
75972;BME280;64651;47.540;19.088;2024-02-21T23:47:40;100619.31;;;7.15;65.51
75972;BME280;64651;47.540;19.088;2024-02-21T23:52:43;100617.09;;;7.12;65.60
75972;BME280;64651;47.540;19.088;2024-02-21T23:57:47;100600.28;;;7.04;65.95
